createdAt,value
2019-03-03T00:05:57.791Z,3.90
2019-03-03T00:08:27.490Z,4.00
2019-03-03T00:10:57.147Z,4.10
2019-03-03T00:13:26.811Z,4.10
2019-03-03T00:15:56.658Z,4.10
2019-03-03T00:18:26.305Z,4.10
2019-03-03T00:20:55.915Z,4.20
2019-03-03T00:23:25.585Z,4.20
2019-03-03T00:25:55.228Z,4.30
2019-03-03T00:28:24.888Z,4.30
2019-03-03T00:30:54.516Z,4.20
2019-03-03T00:33:24.139Z,4.20
2019-03-03T00:35:53.814Z,4.20
2019-03-03T00:38:51.279Z,4.30
2019-03-03T00:41:35.964Z,4.30
2019-03-03T00:44:18.228Z,4.30
2019-03-03T00:47:24.879Z,4.40
2019-03-03T00:50:16.249Z,4.40
2019-03-03T00:52:59.808Z,4.40
2019-03-03T00:55:38.976Z,4.50
2019-03-03T00:58:14.680Z,4.50
2019-03-03T01:00:50.923Z,4.50
2019-03-03T01:03:26.535Z,4.60
2019-03-03T01:06:18.329Z,4.60
2019-03-03T01:09:07.292Z,4.60
2019-03-03T01:12:08.261Z,4.60
2019-03-03T01:14:53.921Z,4.60
2019-03-03T01:17:39.166Z,4.70
2019-03-03T01:20:26.411Z,4.70
2019-03-03T01:23:15.627Z,4.70
2019-03-03T01:25:45.254Z,4.70
2019-03-03T01:28:14.935Z,4.80
2019-03-03T01:30:44.538Z,4.80
2019-03-03T01:33:14.185Z,4.80
2019-03-03T01:35:43.815Z,4.90
2019-03-03T01:38:13.530Z,4.90
2019-03-03T01:40:43.164Z,4.90
2019-03-03T01:43:12.821Z,4.90
2019-03-03T01:45:42.476Z,4.90
2019-03-03T01:48:12.084Z,4.90
2019-03-03T01:50:41.765Z,4.90
2019-03-03T01:53:11.419Z,4.90
2019-03-03T01:55:41.087Z,4.80
2019-03-03T01:58:10.720Z,4.80
2019-03-03T02:00:40.381Z,4.80
2019-03-03T02:03:10.042Z,4.80
2019-03-03T02:05:39.871Z,4.80
2019-03-03T02:08:09.478Z,4.80
2019-03-03T02:10:39.223Z,4.90
2019-03-03T02:13:08.887Z,4.90
2019-03-03T02:15:38.762Z,4.90
2019-03-03T02:18:08.463Z,4.90
2019-03-03T02:20:38.155Z,5.00
2019-03-03T02:23:07.771Z,5.00
2019-03-03T02:25:37.408Z,5.00
2019-03-03T02:28:07.181Z,5.10
2019-03-03T02:30:36.852Z,5.10
2019-03-03T02:33:06.509Z,5.10
2019-03-03T02:35:36.114Z,5.10
2019-03-03T02:38:05.798Z,5.20
2019-03-03T02:40:35.393Z,5.20
2019-03-03T02:43:05.004Z,5.20
2019-03-03T02:45:34.671Z,5.30
2019-03-03T02:48:04.296Z,5.30
2019-03-03T02:50:33.906Z,5.30
2019-03-03T02:53:03.566Z,5.30
2019-03-03T02:55:33.224Z,5.40
2019-03-03T02:58:02.880Z,5.40
2019-03-03T03:00:32.542Z,5.40
2019-03-03T03:03:02.826Z,5.40
2019-03-03T03:05:51.386Z,5.50
2019-03-03T03:08:28.183Z,5.50
2019-03-03T03:11:21.156Z,5.50
2019-03-03T03:14:00.131Z,5.50
2019-03-03T03:16:35.743Z,5.50
2019-03-03T03:19:18.085Z,5.50
2019-03-03T03:21:59.220Z,5.50
2019-03-03T03:24:47.743Z,5.50
2019-03-03T03:27:48.684Z,5.50
2019-03-03T03:30:49.379Z,5.50
2019-03-03T03:33:47.069Z,5.50
2019-03-03T03:36:25.789Z,5.50
2019-03-03T03:39:13.054Z,5.40
2019-03-03T03:42:00.339Z,5.40
2019-03-03T03:44:47.088Z,5.40
2019-03-03T03:47:51.054Z,5.30
2019-03-03T03:50:39.686Z,5.30
2019-03-03T03:53:19.561Z,5.30
2019-03-03T03:56:07.085Z,5.30
2019-03-03T03:58:54.427Z,5.30
2019-03-03T04:01:44.117Z,5.20
2019-03-03T04:04:35.434Z,5.30
2019-03-03T04:07:30.480Z,5.30
2019-03-03T04:10:16.000Z,5.40
2019-03-03T04:13:03.210Z,5.40
2019-03-03T04:15:51.765Z,5.50
2019-03-03T04:18:52.561Z,5.50
2019-03-03T04:21:50.263Z,5.60
2019-03-03T04:24:29.948Z,5.70
2019-03-03T04:27:24.639Z,5.70
2019-03-03T04:30:13.243Z,5.70
2019-03-03T04:32:53.451Z,5.80
2019-03-03T04:35:47.877Z,5.80
2019-03-03T04:38:45.658Z,5.90
2019-03-03T04:41:32.990Z,5.90
2019-03-03T04:44:30.883Z,5.90
2019-03-03T04:47:26.235Z,5.90
2019-03-03T04:50:14.771Z,6.00
2019-03-03T04:53:06.331Z,6.00
2019-03-03T04:56:01.838Z,6.00
2019-03-03T04:58:49.279Z,6.00
2019-03-03T05:01:46.864Z,6.10
2019-03-03T05:04:33.690Z,6.10
2019-03-03T05:07:16.971Z,6.20
2019-03-03T05:09:52.564Z,6.20
2019-03-03T05:12:58.386Z,6.20
2019-03-03T05:15:44.397Z,6.20
2019-03-03T05:18:30.554Z,6.20
2019-03-03T05:21:00.205Z,6.20
2019-03-03T05:23:29.859Z,6.20
2019-03-03T05:25:59.444Z,6.20
2019-03-03T05:28:29.095Z,6.20
2019-03-03T05:30:58.746Z,6.20
2019-03-03T05:33:28.402Z,6.20
2019-03-03T05:35:58.022Z,6.20
2019-03-03T05:38:27.672Z,6.20
2019-03-03T05:40:57.337Z,6.20
2019-03-03T05:43:27.867Z,6.30
2019-03-03T05:45:57.533Z,6.30
2019-03-03T05:48:27.127Z,6.30
2019-03-03T05:50:56.788Z,6.40
2019-03-03T05:53:26.366Z,6.40
2019-03-03T05:55:56.041Z,6.40
2019-03-03T05:58:25.714Z,6.50
2019-03-03T06:00:55.369Z,6.60
2019-03-03T06:03:24.972Z,6.60
2019-03-03T06:05:54.626Z,6.70
2019-03-03T06:08:24.276Z,6.70
2019-03-03T06:10:53.882Z,6.80
2019-03-03T06:13:23.557Z,6.80
2019-03-03T06:15:53.319Z,6.90
2019-03-03T06:18:23.058Z,6.90
2019-03-03T06:20:52.668Z,7.00
2019-03-03T06:23:22.268Z,7.00
2019-03-03T06:25:51.931Z,7.10
2019-03-03T06:28:21.535Z,7.20
2019-03-03T06:30:51.183Z,7.20
2019-03-03T06:33:20.781Z,7.30
2019-03-03T06:35:50.433Z,7.30
2019-03-03T06:38:20.016Z,7.40
2019-03-03T06:40:49.670Z,7.40
2019-03-03T06:43:19.310Z,7.40
2019-03-03T06:45:48.910Z,7.50
2019-03-03T06:48:18.550Z,7.60
2019-03-03T06:50:48.322Z,7.70
2019-03-03T06:53:18.025Z,7.80
2019-03-03T06:55:47.664Z,7.80
2019-03-03T06:58:17.305Z,7.90
2019-03-03T07:00:46.938Z,8.00
2019-03-03T07:03:16.574Z,8.00
2019-03-03T07:05:46.167Z,8.10
2019-03-03T07:08:15.808Z,8.10
2019-03-03T07:10:45.387Z,8.20
2019-03-03T07:13:15.061Z,8.20
2019-03-03T07:15:44.640Z,8.30
2019-03-03T07:18:14.321Z,8.30
2019-03-03T07:20:43.916Z,8.40
2019-03-03T07:23:15.848Z,8.50
2019-03-03T07:25:45.469Z,8.50
2019-03-03T07:28:17.191Z,8.60
2019-03-03T07:30:46.351Z,8.70
2019-03-03T07:33:34.979Z,8.80
2019-03-03T07:36:04.571Z,9.00
2019-03-03T07:38:34.217Z,9.00
2019-03-03T07:41:03.794Z,9.00
2019-03-03T07:43:33.472Z,9.10
2019-03-03T07:46:03.110Z,9.10
2019-03-03T07:48:33.180Z,9.20
2019-03-03T07:51:07.122Z,9.30
2019-03-03T07:53:37.741Z,9.40
2019-03-03T07:56:07.408Z,9.50
2019-03-03T07:58:37.055Z,9.50
2019-03-03T08:01:06.764Z,9.70
2019-03-03T08:03:36.451Z,9.80
2019-03-03T08:06:06.027Z,10.10
2019-03-03T08:08:35.691Z,10.30
2019-03-03T08:11:05.300Z,10.70
2019-03-03T08:13:34.883Z,11.00
2019-03-03T08:16:04.544Z,11.20
2019-03-03T08:18:34.187Z,11.40
2019-03-03T08:21:03.891Z,11.50
2019-03-03T08:23:33.537Z,11.50
2019-03-03T08:26:03.155Z,11.50
2019-03-03T08:28:32.752Z,11.50
2019-03-03T08:31:03.100Z,11.50
2019-03-03T08:33:32.725Z,11.50
2019-03-03T08:36:02.385Z,11.50
2019-03-03T08:38:32.083Z,11.50
2019-03-03T08:41:01.761Z,11.50
2019-03-03T08:43:37.875Z,11.60
2019-03-03T08:46:16.926Z,11.50
2019-03-03T08:49:08.013Z,11.40
2019-03-03T08:51:51.297Z,11.40
2019-03-03T08:54:30.264Z,11.40
2019-03-03T08:57:17.875Z,11.50
2019-03-03T09:00:09.234Z,11.70
2019-03-03T09:02:57.835Z,11.80
2019-03-03T09:05:40.319Z,11.80
2019-03-03T09:08:28.942Z,11.80
2019-03-03T09:11:17.551Z,11.80
2019-03-03T09:13:56.602Z,11.80
2019-03-03T09:16:51.119Z,11.70
2019-03-03T09:19:35.141Z,11.70
2019-03-03T09:22:14.536Z,11.70
2019-03-03T09:25:09.155Z,11.70
2019-03-03T09:27:57.214Z,11.60
2019-03-03T09:30:49.147Z,11.50
2019-03-03T09:33:46.854Z,11.50
2019-03-03T09:36:35.419Z,11.40
2019-03-03T09:39:23.852Z,11.30
2019-03-03T09:42:15.438Z,11.30
2019-03-03T09:44:51.446Z,11.30
2019-03-03T09:47:52.373Z,11.30
2019-03-03T09:50:39.811Z,11.40
2019-03-03T09:53:34.260Z,11.30
2019-03-03T09:56:20.166Z,11.30
2019-03-03T09:59:09.220Z,11.20
2019-03-03T10:02:03.683Z,11.30
2019-03-03T10:04:44.920Z,11.40
2019-03-03T10:07:48.927Z,11.60
2019-03-03T10:10:26.580Z,11.70
2019-03-03T10:13:13.886Z,11.90
2019-03-03T10:16:02.428Z,12.00
2019-03-03T10:18:53.108Z,11.90
2019-03-03T10:21:33.865Z,11.90
2019-03-03T10:24:21.079Z,11.80
2019-03-03T10:27:15.622Z,11.70
2019-03-03T10:29:55.329Z,11.60
2019-03-03T10:32:59.200Z,11.50
2019-03-03T10:36:03.060Z,11.40
2019-03-03T10:38:51.617Z,11.40
2019-03-03T10:41:32.678Z,11.30
2019-03-03T10:44:11.896Z,11.30
2019-03-03T10:46:55.754Z,11.30
2019-03-03T10:49:40.556Z,11.20
2019-03-03T10:52:32.356Z,11.20
2019-03-03T10:55:16.139Z,11.20
2019-03-03T10:58:03.657Z,11.20
2019-03-03T11:00:54.094Z,11.20
2019-03-03T11:03:48.713Z,11.30
2019-03-03T11:06:39.843Z,11.30
2019-03-03T11:09:44.119Z,11.30
2019-03-03T11:12:31.342Z,11.30
2019-03-03T11:15:19.350Z,11.30
2019-03-03T11:18:07.948Z,11.40
2019-03-03T11:20:59.627Z,11.50
2019-03-03T11:23:35.247Z,11.60
2019-03-03T11:26:30.254Z,11.70
2019-03-03T11:29:22.177Z,11.70
2019-03-03T11:32:09.334Z,11.70
2019-03-03T11:34:54.775Z,11.70
2019-03-03T11:37:49.631Z,11.70
2019-03-03T11:40:37.104Z,11.80
2019-03-03T11:43:28.860Z,11.80
2019-03-03T11:46:20.339Z,11.90
2019-03-03T11:49:08.872Z,11.90
2019-03-03T11:51:56.486Z,11.80
2019-03-03T11:54:45.626Z,11.70
2019-03-03T11:57:52.635Z,11.60
2019-03-03T12:00:54.225Z,11.50
2019-03-03T12:03:42.815Z,11.50
2019-03-03T12:06:29.516Z,11.50
2019-03-03T12:09:33.462Z,11.50
2019-03-03T12:12:28.329Z,11.50
2019-03-03T12:15:11.783Z,11.50
2019-03-03T12:17:50.215Z,11.40
2019-03-03T12:20:37.783Z,11.50
2019-03-03T12:23:25.351Z,11.60
2019-03-03T12:26:10.301Z,11.70
2019-03-03T12:28:58.961Z,11.70
2019-03-03T12:31:46.175Z,11.80
2019-03-03T12:34:29.582Z,11.90
2019-03-03T12:37:14.936Z,12.00
2019-03-03T12:40:04.720Z,12.10
2019-03-03T12:42:47.872Z,12.20
2019-03-03T12:45:24.540Z,12.30
2019-03-03T12:48:13.110Z,12.40
2019-03-03T12:50:50.214Z,12.40
2019-03-03T12:53:37.775Z,12.50
2019-03-03T12:56:15.860Z,12.50
2019-03-03T12:58:54.588Z,12.60
2019-03-03T13:01:34.904Z,12.60
2019-03-03T13:04:20.824Z,12.50
2019-03-03T13:07:03.765Z,12.40
2019-03-03T13:09:55.637Z,12.30
2019-03-03T13:12:44.244Z,12.30
2019-03-03T13:15:31.689Z,12.20
2019-03-03T13:18:20.299Z,12.20
2019-03-03T13:20:56.966Z,12.10
2019-03-03T13:23:48.610Z,12.10
2019-03-03T13:26:43.039Z,12.10
2019-03-03T13:29:34.796Z,12.10
2019-03-03T13:32:32.370Z,12.00
2019-03-03T13:35:27.098Z,11.90
2019-03-03T13:38:11.890Z,11.90
2019-03-03T13:41:15.435Z,11.90
2019-03-03T13:43:45.704Z,11.80
2019-03-03T13:46:15.773Z,11.80
2019-03-03T13:48:45.426Z,11.80
2019-03-03T13:51:15.224Z,11.80
2019-03-03T13:53:46.480Z,11.80
2019-03-03T13:56:18.248Z,11.90
2019-03-03T13:58:47.997Z,11.80
2019-03-03T14:01:18.895Z,11.80
2019-03-03T14:03:48.661Z,11.90
2019-03-03T14:06:18.335Z,11.80
2019-03-03T14:08:47.993Z,11.80
2019-03-03T14:11:27.328Z,11.80
2019-03-03T14:13:56.924Z,11.80
2019-03-03T14:16:26.579Z,11.70
2019-03-03T14:18:56.287Z,11.70
2019-03-03T14:21:26.337Z,11.70
2019-03-03T14:23:56.016Z,11.60
2019-03-03T14:26:25.629Z,11.60
2019-03-03T14:28:55.418Z,11.60
2019-03-03T14:31:25.901Z,11.50
2019-03-03T14:33:55.715Z,11.50
2019-03-03T14:36:25.315Z,11.40
2019-03-03T14:38:55.267Z,11.50
2019-03-03T14:41:24.928Z,11.40
2019-03-03T14:43:54.512Z,11.30
2019-03-03T14:46:24.171Z,11.30
2019-03-03T14:48:58.047Z,11.20
2019-03-03T14:51:28.525Z,11.10
2019-03-03T14:53:58.426Z,11.10
2019-03-03T14:56:28.287Z,11.00
2019-03-03T14:58:58.012Z,11.00
2019-03-03T15:01:27.826Z,10.90
2019-03-03T15:03:57.487Z,10.90
2019-03-03T15:06:27.175Z,10.80
2019-03-03T15:08:56.862Z,10.70
2019-03-03T15:11:26.533Z,10.70
2019-03-03T15:13:56.163Z,10.60
2019-03-03T15:16:25.790Z,10.50
2019-03-03T15:18:55.498Z,10.50
2019-03-03T15:21:26.237Z,10.40
2019-03-03T15:23:58.110Z,10.30
2019-03-03T15:26:27.741Z,10.20
2019-03-03T15:28:57.404Z,10.20
2019-03-03T15:31:27.062Z,10.10
2019-03-03T15:33:57.091Z,10.10
2019-03-03T15:36:26.768Z,10.00
2019-03-03T15:38:57.271Z,9.90
2019-03-03T15:41:27.127Z,9.90
2019-03-03T15:43:56.820Z,9.90
2019-03-03T15:46:26.422Z,9.80
2019-03-03T15:48:56.052Z,9.80
2019-03-03T15:51:26.141Z,9.80
2019-03-03T15:53:55.747Z,9.70
2019-03-03T15:56:25.415Z,9.70
2019-03-03T15:58:55.831Z,9.60
2019-03-03T16:01:25.788Z,9.60
2019-03-03T16:03:55.485Z,9.50
2019-03-03T16:06:25.133Z,9.50
2019-03-03T16:08:54.803Z,9.50
2019-03-03T16:11:24.573Z,9.40
2019-03-03T16:13:54.246Z,9.40
2019-03-03T16:16:23.999Z,9.40
2019-03-03T16:18:53.700Z,9.40
2019-03-03T16:21:23.350Z,9.30
2019-03-03T16:23:53.032Z,9.30
2019-03-03T16:26:22.646Z,9.30
2019-03-03T16:28:52.711Z,9.30
2019-03-03T16:31:22.316Z,9.20
2019-03-03T16:33:53.727Z,9.20
2019-03-03T16:36:23.343Z,9.20
2019-03-03T16:38:53.026Z,9.10
2019-03-03T16:41:24.958Z,9.10
2019-03-03T16:43:54.631Z,9.10
2019-03-03T16:46:24.301Z,9.10
2019-03-03T16:48:53.972Z,9.10
2019-03-03T16:51:23.646Z,9.00
2019-03-03T16:53:53.718Z,9.00
2019-03-03T16:56:23.719Z,9.00
2019-03-03T16:58:54.981Z,9.00
2019-03-03T17:01:25.278Z,9.00
2019-03-03T17:03:55.042Z,8.90
2019-03-03T17:06:26.643Z,8.90
2019-03-03T17:08:56.592Z,8.90
2019-03-03T17:11:26.195Z,8.90
2019-03-03T17:13:55.888Z,8.90
2019-03-03T17:16:25.750Z,8.90
2019-03-03T17:18:55.707Z,8.90
2019-03-03T17:21:25.319Z,8.90
2019-03-03T17:23:55.048Z,8.90
2019-03-03T17:26:24.695Z,8.90
2019-03-03T17:28:54.356Z,8.90
2019-03-03T17:31:24.728Z,8.80
2019-03-03T17:33:55.540Z,8.80
2019-03-03T17:36:25.596Z,8.80
2019-03-03T17:38:55.279Z,8.80
2019-03-03T17:41:26.181Z,8.80
2019-03-03T17:43:56.250Z,8.80
2019-03-03T17:46:26.173Z,8.90
2019-03-03T17:48:55.891Z,8.90
2019-03-03T17:51:25.643Z,8.90
2019-03-03T17:53:55.239Z,8.90
2019-03-03T17:56:24.910Z,8.90
2019-03-03T17:58:54.563Z,8.90
2019-03-03T18:01:24.615Z,8.90
2019-03-03T18:03:54.235Z,8.90
2019-03-03T18:06:23.929Z,8.90
2019-03-03T18:08:53.580Z,8.90
2019-03-03T18:11:23.652Z,8.90
2019-03-03T18:13:53.268Z,8.90
2019-03-03T18:16:23.547Z,8.90
2019-03-03T18:18:54.334Z,9.00
2019-03-03T18:21:24.463Z,9.00
2019-03-03T18:23:54.096Z,9.00
2019-03-03T18:26:24.177Z,9.00
2019-03-03T18:28:53.908Z,9.10
2019-03-03T18:31:23.514Z,9.00
2019-03-03T18:33:53.364Z,9.10
2019-03-03T18:36:23.026Z,9.10
2019-03-03T18:38:52.662Z,9.10
2019-03-03T18:41:23.795Z,9.10
2019-03-03T18:43:53.462Z,9.10
2019-03-03T18:46:23.160Z,9.10
2019-03-03T18:48:52.807Z,9.10
2019-03-03T18:51:22.567Z,9.10
2019-03-03T18:53:52.524Z,9.00
2019-03-03T18:56:24.033Z,9.00
2019-03-03T18:58:53.708Z,9.00
2019-03-03T19:01:24.671Z,9.00
2019-03-03T19:03:54.350Z,9.10
2019-03-03T19:06:26.578Z,9.10
2019-03-03T19:08:57.629Z,9.10
2019-03-03T19:11:27.287Z,9.10
2019-03-03T19:13:56.982Z,9.10
2019-03-03T19:16:26.959Z,9.10
2019-03-03T19:18:56.642Z,9.00
2019-03-03T19:21:26.341Z,9.00
2019-03-03T19:23:56.974Z,9.00
2019-03-03T19:26:28.627Z,9.10
2019-03-03T19:28:58.226Z,9.00
2019-03-03T19:31:29.189Z,9.00
2019-03-03T19:34:02.263Z,9.00
2019-03-03T19:36:32.703Z,9.00
2019-03-03T19:39:05.879Z,9.10
2019-03-03T19:41:35.556Z,9.10
2019-03-03T19:44:05.279Z,9.10
2019-03-03T19:46:35.204Z,9.10
2019-03-03T19:49:04.961Z,9.20
2019-03-03T19:51:34.664Z,9.10
2019-03-03T19:54:04.716Z,9.10
2019-03-03T19:56:34.674Z,9.10
2019-03-03T19:59:04.796Z,9.10
2019-03-03T20:01:34.479Z,9.00
2019-03-03T20:04:05.514Z,9.00
2019-03-03T20:06:36.226Z,9.00
2019-03-03T20:09:09.200Z,9.00
2019-03-03T20:11:38.813Z,9.00
2019-03-03T20:14:10.017Z,9.00
2019-03-03T20:16:40.033Z,9.10
2019-03-03T20:19:10.134Z,9.10
2019-03-03T20:21:39.747Z,9.20
2019-03-03T20:24:11.696Z,9.20
2019-03-03T20:26:41.357Z,9.20
2019-03-03T20:29:11.333Z,9.30
2019-03-03T20:31:43.347Z,9.30
2019-03-03T20:34:13.442Z,9.30
2019-03-03T20:36:43.022Z,9.40
2019-03-03T20:39:13.600Z,9.40
2019-03-03T20:41:43.279Z,9.50
2019-03-03T20:44:12.868Z,9.50
2019-03-03T20:46:42.527Z,9.50
2019-03-03T20:49:13.955Z,9.50
2019-03-03T20:51:43.614Z,9.50
2019-03-03T20:54:13.263Z,9.60
2019-03-03T20:56:42.951Z,9.60
2019-03-03T20:59:12.639Z,9.60
2019-03-03T21:01:42.300Z,9.60
2019-03-03T21:04:11.940Z,9.70
2019-03-03T21:06:41.543Z,9.70
2019-03-03T21:09:18.655Z,9.70
2019-03-03T21:11:43.928Z,9.70
2019-03-03T21:14:14.336Z,9.60
2019-03-03T21:16:43.935Z,9.60
2019-03-03T21:19:13.650Z,9.60
2019-03-03T21:21:43.290Z,9.60
2019-03-03T21:24:12.965Z,9.60
2019-03-03T21:26:44.447Z,9.60
2019-03-03T21:29:14.042Z,9.60
2019-03-03T21:31:43.717Z,9.50
2019-03-03T21:34:13.303Z,9.50
2019-03-03T21:36:42.945Z,9.50
2019-03-03T21:39:12.631Z,9.50
2019-03-03T21:41:42.289Z,9.50
2019-03-03T21:44:11.871Z,9.50
2019-03-03T21:46:41.544Z,9.50
2019-03-03T21:49:11.155Z,9.50
2019-03-03T21:51:40.813Z,9.50
2019-03-03T21:54:10.416Z,9.50
2019-03-03T21:56:40.056Z,9.40
2019-03-03T21:59:09.790Z,9.50
2019-03-03T22:01:39.431Z,9.50
2019-03-03T22:04:09.067Z,9.50
2019-03-03T22:06:38.739Z,9.50
2019-03-03T22:09:09.053Z,9.40
2019-03-03T22:11:38.659Z,9.40
2019-03-03T22:14:08.363Z,9.40
2019-03-03T22:16:38.067Z,9.30
2019-03-03T22:19:07.650Z,9.30
2019-03-03T22:21:37.277Z,9.30
2019-03-03T22:24:06.951Z,9.20
2019-03-03T22:26:36.556Z,9.20
2019-03-03T22:29:06.163Z,9.10
2019-03-03T22:31:35.821Z,9.10
2019-03-03T22:34:05.474Z,9.10
2019-03-03T22:36:35.107Z,9.10
2019-03-03T22:39:06.529Z,9.10
2019-03-03T22:41:36.189Z,9.10
2019-03-03T22:44:05.910Z,9.10
2019-03-03T22:46:35.555Z,9.10
2019-03-03T22:49:08.794Z,9.10
2019-03-03T22:51:38.434Z,9.10
2019-03-03T22:54:08.097Z,9.10
2019-03-03T22:56:37.696Z,9.10
2019-03-03T22:59:07.343Z,9.10
2019-03-03T23:01:41.202Z,9.20
2019-03-03T23:05:02.790Z,9.20
2019-03-03T23:08:02.876Z,9.20
2019-03-03T23:11:12.690Z,9.30
2019-03-03T23:14:13.518Z,9.30
2019-03-03T23:17:22.644Z,9.30
2019-03-03T23:20:15.405Z,9.30
2019-03-03T23:23:50.510Z,9.30
2019-03-03T23:26:20.165Z,9.20
2019-03-03T23:28:49.798Z,9.30
2019-03-03T23:31:19.433Z,9.30
2019-03-03T23:33:49.311Z,9.30
2019-03-03T23:36:18.959Z,9.40
2019-03-03T23:38:48.528Z,9.40
2019-03-03T23:41:18.168Z,9.40
2019-03-03T23:43:47.763Z,9.40
2019-03-03T23:46:17.387Z,9.40
2019-03-03T23:48:46.989Z,9.40
2019-03-03T23:51:16.637Z,9.30
2019-03-03T23:53:46.277Z,9.30
2019-03-03T23:56:15.912Z,9.30
2019-03-03T23:58:45.594Z,9.30
